Time;durP1;ratioP1;P1;durP2;ratioP2;P2;SDS_P1;SDS_P2;PMS_P1;PMS_P2;Temp;Humidity;BMP_temperature;BMP_pressure;BME280_temperature;BME280_humidity;BME280_pressure;Samples;Min_cycle;Max_cycle;Signal;HPM_P1;HPM_P2
2024/03/30 00:01:02;;;;;;;0.97;0.40;;;;;;;10.75;100.00;99695.84;5069413;28;20781;-39
2024/03/30 00:03:28;;;;;;;0.93;0.50;;;;;;;10.71;100.00;99690.13;5069701;28;20029;-40
2024/03/30 00:06:01;;;;;;;1.42;0.40;;;;;;;10.68;100.00;99690.63;5061196;28;20064;-41
2024/03/30 00:08:27;;;;;;;0.77;0.30;;;;;;;10.65;100.00;99688.47;5056437;28;20380;-40
2024/03/30 00:11:00;;;;;;;1.45;0.60;;;;;;;10.68;100.00;99687.13;5056076;28;20033;-39
2024/03/30 00:13:26;;;;;;;1.33;0.50;;;;;;;10.63;100.00;99676.28;5056435;28;20021;-39
2024/03/30 00:15:51;;;;;;;;;;;;;;;10.78;100.00;99693.44;5056435;28;20059;-40
2024/03/30 00:18:17;;;;;;;0.65;0.43;;;;;;;10.64;100.00;99681.44;5056062;28;19908;-39
2024/03/30 00:20:42;;;;;;;1.33;0.60;;;;;;;10.71;100.00;99694.72;5056426;28;20032;-39
2024/03/30 00:23:07;;;;;;;1.23;0.57;;;;;;;10.69;100.00;99688.78;5056348;28;20043;-39
2024/03/30 00:25:33;;;;;;;1.40;0.50;;;;;;;10.64;100.00;99680.59;5055751;28;20263;-39
2024/03/30 00:27:59;;;;;;;0.67;0.37;;;;;;;10.65;100.00;99679.56;5055776;28;20150;-39
2024/03/30 00:30:24;;;;;;;0.75;0.40;;;;;;;10.67;100.00;99669.28;5055374;28;20037;-39
2024/03/30 00:32:49;;;;;;;0.80;0.43;;;;;;;10.65;100.00;99666.03;5056367;28;20029;-39
2024/03/30 00:35:15;;;;;;;1.10;0.50;;;;;;;10.64;100.00;99651.69;5055855;28;20090;-40
2024/03/30 00:37:41;;;;;;;;;;;;;;;10.73;100.00;99647.41;5055648;28;20267;-40
2024/03/30 00:40:06;;;;;;;0.73;0.40;;;;;;;10.65;100.00;99647.09;5055297;28;19991;-40
2024/03/30 00:42:32;;;;;;;0.80;0.50;;;;;;;10.55;100.00;99645.97;5055953;28;20278;-40
2024/03/30 00:44:57;;;;;;;1.02;0.50;;;;;;;10.56;100.00;99647.59;5055424;28;20446;-39
2024/03/30 00:47:23;;;;;;;1.07;0.60;;;;;;;10.50;100.00;99632.41;5055429;28;20029;-39
2024/03/30 00:49:48;;;;;;;1.70;0.53;;;;;;;10.43;100.00;99626.41;5055674;28;20025;-40
2024/03/30 00:52:13;;;;;;;0.67;0.43;;;;;;;10.50;100.00;99637.81;5055208;28;20297;-38
2024/03/30 00:54:38;;;;;;;1.90;0.50;;;;;;;10.40;100.00;99631.53;5056203;28;20128;-40
2024/03/30 00:57:04;;;;;;;0.50;0.40;;;;;;;10.39;100.00;99636.09;5054930;28;20057;-40
2024/03/30 00:59:29;;;;;;;0.50;0.45;;;;;;;10.39;100.00;99625.28;5055941;28;20064;-39
2024/03/30 01:01:55;;;;;;;1.93;0.60;;;;;;;10.37;100.00;99616.63;5054745;28;20449;-39
2024/03/30 01:04:20;;;;;;;1.40;0.47;;;;;;;10.33;100.00;99610.13;5055160;28;20272;-39
2024/03/30 01:06:46;;;;;;;0.50;0.40;;;;;;;10.28;100.00;99591.97;5054242;28;20275;-39
2024/03/30 01:09:11;;;;;;;1.00;0.50;;;;;;;10.38;100.00;99607.44;5054852;28;20108;-39
2024/03/30 01:11:37;;;;;;;1.10;0.67;;;;;;;10.39;100.00;99603.66;5054469;28;20033;-39
2024/03/30 01:14:04;;;;;;;1.90;0.50;;;;;;;10.38;100.00;99595.81;5054656;28;20322;-39
2024/03/30 01:16:30;;;;;;;0.82;0.50;;;;;;;10.31;100.00;99591.47;5053947;28;20037;-39
2024/03/30 01:18:56;;;;;;;0.90;0.40;;;;;;;10.35;100.00;99596.38;5054104;28;20036;-39
2024/03/30 01:21:22;;;;;;;1.23;0.60;;;;;;;10.38;100.00;99601.22;5054213;28;20074;-39
2024/03/30 01:23:47;;;;;;;1.20;0.63;;;;;;;10.33;100.00;99602.00;5054459;28;20120;-39
2024/03/30 01:26:15;;;;;;;0.70;0.50;;;;;;;10.34;100.00;99595.53;5054626;28;20028;-39
2024/03/30 01:28:42;;;;;;;0.80;0.60;;;;;;;10.27;100.00;99598.47;5054597;28;20454;-39
2024/03/30 01:31:08;;;;;;;1.00;0.52;;;;;;;10.30;100.00;99602.53;5054735;28;20025;-39
2024/03/30 01:33:34;;;;;;;0.98;0.40;;;;;;;10.32;100.00;99603.91;5054389;28;20035;-39
2024/03/30 01:35:59;;;;;;;0.50;0.40;;;;;;;10.30;100.00;99595.25;5054928;28;20021;-39
2024/03/30 01:38:24;;;;;;;1.87;0.60;;;;;;;10.29;100.00;99600.91;5054503;28;20517;-39
2024/03/30 01:40:50;;;;;;;1.10;0.50;;;;;;;10.31;100.00;99606.88;5054639;28;20601;-39
2024/03/30 01:43:15;;;;;;;0.83;0.43;;;;;;;10.34;100.00;99603.63;5054286;28;20052;-38
2024/03/30 01:45:43;;;;;;;1.20;0.52;;;;;;;10.33;100.00;99607.41;5055036;28;20021;-38
2024/03/30 01:48:10;;;;;;;1.15;0.45;;;;;;;10.27;100.00;99608.47;5054124;28;20556;-38
2024/03/30 01:50:39;;;;;;;0.70;0.50;;;;;;;10.30;100.00;99605.25;5054189;28;20036;-39
2024/03/30 01:53:06;;;;;;;0.50;0.32;;;;;;;10.24;100.00;99598.97;5053779;28;20091;-38
2024/03/30 01:55:32;;;;;;;1.38;0.68;;;;;;;10.21;100.00;99591.38;5053874;28;20060;-39
2024/03/30 01:58:00;;;;;;;1.60;0.70;;;;;;;10.20;100.00;99572.69;5053817;28;20052;-38
2024/03/30 02:00:26;;;;;;;0.93;0.57;;;;;;;10.24;100.00;99573.84;5054813;28;20056;-39
2024/03/30 02:02:52;;;;;;;1.88;0.60;;;;;;;10.24;100.00;99569.25;5053624;28;20025;-39
2024/03/30 02:05:18;;;;;;;;;;;;;;;10.36;100.00;99570.97;5054641;28;20080;-38
2024/03/30 02:07:46;;;;;;;1.92;0.70;;;;;;;10.14;100.00;99562.94;5054104;28;19912;-38
2024/03/30 02:10:12;;;;;;;0.70;0.50;;;;;;;10.14;100.00;99574.56;5054047;28;20120;-39
2024/03/30 02:12:38;;;;;;;0.90;0.50;;;;;;;10.15;100.00;99580.75;5053766;28;20508;-39
2024/03/30 02:15:04;;;;;;;1.00;0.50;;;;;;;10.14;100.00;99587.25;5053884;28;20120;-38
2024/03/30 02:17:29;;;;;;;1.10;0.52;;;;;;;10.09;100.00;99579.09;5053674;28;20048;-39
2024/03/30 02:19:57;;;;;;;0.82;0.40;;;;;;;10.15;100.00;99597.81;5053989;28;20090;-38
2024/03/30 02:22:22;;;;;;;0.68;0.43;;;;;;;10.09;100.00;99606.94;5053592;28;20381;-38
2024/03/30 02:24:48;;;;;;;1.13;0.60;;;;;;;10.05;100.00;99606.66;5053869;28;20044;-38
2024/03/30 02:27:13;;;;;;;1.40;0.90;;;;;;;10.03;100.00;99605.25;5053569;28;20033;-38
2024/03/30 02:29:42;;;;;;;1.10;0.77;;;;;;;9.98;100.00;99605.22;5053569;28;20036;-39
2024/03/30 02:32:08;;;;;;;0.90;0.50;;;;;;;10.02;100.00;99609.03;5053669;28;20093;-40
2024/03/30 02:34:33;;;;;;;;;;;;;;;10.12;100.00;99611.81;5054627;28;20036;-39
2024/03/30 02:36:59;;;;;;;2.10;0.60;;;;;;;10.02;100.00;99609.03;5053373;28;19916;-39
2024/03/30 02:39:24;;;;;;;1.13;0.57;;;;;;;10.02;100.00;99606.34;5054226;28;20113;-39
2024/03/30 02:41:49;;;;;;;0.63;0.60;;;;;;;9.88;100.00;99589.75;5053888;28;20126;-39
2024/03/30 02:44:15;;;;;;;0.93;0.60;;;;;;;9.94;100.00;99602.22;5053653;28;20112;-39
2024/03/30 02:46:40;;;;;;;1.23;0.60;;;;;;;9.97;100.00;99606.28;5053306;28;20052;-39
2024/03/30 02:49:05;;;;;;;0.87;0.50;;;;;;;9.95;100.00;99592.22;5053829;28;20263;-39
2024/03/30 02:51:31;;;;;;;0.90;0.60;;;;;;;10.00;100.00;99597.66;5053326;28;20061;-39
2024/03/30 02:53:56;;;;;;;1.67;0.80;;;;;;;9.99;100.00;99594.16;5053170;28;20131;-38
2024/03/30 02:56:21;;;;;;;1.90;0.87;;;;;;;9.94;100.00;99588.72;5053241;28;20029;-38
2024/03/30 02:58:47;;;;;;;1.00;0.80;;;;;;;9.85;100.00;99586.72;5053482;28;20305;-39
2024/03/30 03:01:12;;;;;;;2.30;0.73;;;;;;;9.87;100.00;99596.22;5053673;28;20453;-38
2024/03/30 03:03:38;;;;;;;1.52;0.73;;;;;;;9.78;100.00;99586.94;5053700;28;20090;-39
2024/03/30 03:06:03;;;;;;;1.37;0.80;;;;;;;9.79;100.00;99583.19;5053172;28;20036;-39
2024/03/30 03:08:29;;;;;;;1.30;0.93;;;;;;;9.79;100.00;99580.47;5053357;28;20051;-39
2024/03/30 03:10:54;;;;;;;1.17;0.65;;;;;;;9.83;100.00;99578.91;5053661;28;20029;-39
2024/03/30 03:13:20;;;;;;;1.45;0.80;;;;;;;9.79;100.00;99573.19;5053038;28;20021;-40
2024/03/30 03:15:46;;;;;;;3.40;1.20;;;;;;;9.75;100.00;99563.97;5053375;28;20104;-39
2024/03/30 03:18:11;;;;;;;1.27;1.02;;;;;;;9.77;100.00;99566.44;5053005;28;20439;-39
2024/03/30 03:20:36;;;;;;;0.75;0.75;;;;;;;9.81;100.00;99562.16;5053042;28;20025;-39
2024/03/30 03:23:02;;;;;;;2.00;1.00;;;;;;;9.79;100.00;99569.69;5052748;28;20436;-39
2024/03/30 03:25:27;;;;;;;1.25;0.90;;;;;;;9.68;100.00;99567.97;5053784;28;20445;-39
2024/03/30 03:27:53;;;;;;;2.13;0.90;;;;;;;9.70;100.00;99565.81;5052638;28;20140;-39
2024/03/30 03:30:18;;;;;;;0.77;0.73;;;;;;;9.64;100.00;99566.84;5053187;28;20025;-40
2024/03/30 03:32:45;;;;;;;2.70;1.23;;;;;;;9.62;100.00;99558.19;5053207;28;20501;-40
2024/03/30 03:35:11;;;;;;;0.95;0.80;;;;;;;9.65;100.00;99552.28;5052759;28;20527;-38
2024/03/30 03:37:36;;;;;;;0.90;0.75;;;;;;;9.62;100.00;99552.81;5052773;28;20025;-38
2024/03/30 03:40:02;;;;;;;0.93;0.82;;;;;;;9.67;100.00;99552.84;5053241;28;20087;-39
2024/03/30 03:42:27;;;;;;;1.30;1.00;;;;;;;9.63;100.00;99541.75;5056637;28;20087;-39
2024/03/30 03:44:52;;;;;;;1.13;0.80;;;;;;;9.66;100.00;99546.63;5056882;28;20029;-39
2024/03/30 03:47:18;;;;;;;1.63;1.00;;;;;;;9.59;100.00;99537.91;5056837;28;20406;-39
2024/03/30 03:49:43;;;;;;;1.30;0.90;;;;;;;9.55;100.00;99539.50;5056527;28;20427;-39
2024/03/30 03:52:09;;;;;;;1.08;0.80;;;;;;;9.54;100.00;99544.09;5056739;28;20033;-39
2024/03/30 03:54:34;;;;;;;1.27;0.85;;;;;;;9.61;100.00;99548.44;5056910;28;20041;-39
2024/03/30 03:56:59;;;;;;;1.13;0.93;;;;;;;9.53;100.00;99547.06;5056840;28;20108;-39
2024/03/30 03:59:25;;;;;;;1.20;0.90;;;;;;;9.40;100.00;99529.38;5056126;28;20262;-39
2024/03/30 04:01:51;;;;;;;;;;;;;;;9.60;100.00;99536.03;5057247;28;20077;-39
2024/03/30 04:04:16;;;;;;;1.07;0.80;;;;;;;9.50;100.00;99537.56;5056741;28;19912;-39
2024/03/30 04:06:42;;;;;;;1.77;1.10;;;;;;;9.48;100.00;99545.13;5056179;28;20108;-39
2024/03/30 04:09:08;;;;;;;1.73;1.00;;;;;;;9.50;100.00;99536.75;5056455;28;20063;-39
2024/03/30 04:11:33;;;;;;;2.35;0.88;;;;;;;9.52;100.00;99530.03;5055776;28;20035;-39
2024/03/30 04:13:58;;;;;;;1.73;1.00;;;;;;;9.54;100.00;99546.78;5056768;28;20071;-39
2024/03/30 04:16:24;;;;;;;1.77;1.00;;;;;;;9.42;100.00;99529.09;5055701;28;20032;-39
2024/03/30 04:18:51;;;;;;;2.20;1.50;;;;;;;9.49;100.00;99544.03;5056317;28;20036;-39
2024/03/30 04:21:16;;;;;;;1.23;1.00;;;;;;;9.45;100.00;99534.00;5056336;28;20032;-39
2024/03/30 04:23:42;;;;;;;1.98;1.10;;;;;;;9.44;100.00;99541.28;5056671;28;20033;-39
2024/03/30 04:26:14;;;;;;;1.60;1.20;;;;;;;9.40;100.00;99544.75;5055773;28;20034;-39
2024/03/30 04:28:40;;;;;;;1.83;1.50;;;;;;;9.37;100.00;99520.97;5056057;28;20029;-39
2024/03/30 04:31:06;;;;;;;1.63;1.25;;;;;;;9.37;100.00;99512.88;5056007;28;20399;-39
2024/03/30 04:33:32;;;;;;;;;;;;;;;9.48;100.00;99514.63;5056289;28;20036;-39
2024/03/30 04:36:00;;;;;;;2.00;1.52;;;;;;;9.38;100.00;99519.94;5055708;28;19951;-39
2024/03/30 04:38:27;;;;;;;1.95;1.63;;;;;;;9.31;100.00;99501.22;5055185;28;20036;-39
2024/03/30 04:41:12;;;;;;;1.92;1.73;;;;;;;9.36;100.00;99512.06;5055981;28;20029;-39
2024/03/30 04:43:38;;;;;;;6.10;1.92;;;;;;;9.19;100.00;99492.50;5055700;28;20163;-39
2024/03/30 04:46:04;;;;;;;2.53;2.00;;;;;;;9.23;100.00;99510.59;5055174;28;20032;-39
2024/03/30 04:48:33;;;;;;;2.33;2.10;;;;;;;9.20;100.00;99511.09;5055336;28;20036;-39
2024/03/30 04:51:02;;;;;;;2.58;2.00;;;;;;;9.09;100.00;99506.69;5055220;28;20033;-39
2024/03/30 04:53:34;;;;;;;2.25;2.05;;;;;;;9.14;100.00;99495.13;5055119;28;20099;-39
2024/03/30 04:56:01;;;;;;;2.33;2.13;;;;;;;9.05;100.00;99493.97;5055235;28;20029;-39
2024/03/30 04:58:29;;;;;;;3.10;2.10;;;;;;;9.06;100.00;99476.72;5055957;28;20028;-39
2024/03/30 05:00:59;;;;;;;2.65;2.40;;;;;;;9.05;100.00;99488.56;5055979;28;20021;-39
2024/03/30 05:03:25;;;;;;;2.35;2.15;;;;;;;9.13;100.00;99485.41;5055357;28;20032;-38
2024/03/30 05:05:50;;;;;;;3.70;2.37;;;;;;;9.16;100.00;99482.19;5055385;28;20430;-39
2024/03/30 05:08:15;;;;;;;3.00;2.63;;;;;;;9.14;100.00;99479.75;5055075;28;20267;-38
2024/03/30 05:10:42;;;;;;;3.77;2.60;;;;;;;9.13;100.00;99474.63;5055277;28;20029;-39
2024/03/30 05:13:08;;;;;;;3.08;2.50;;;;;;;9.10;100.00;99472.44;5055456;28;20025;-39
2024/03/30 05:15:43;;;;;;;3.80;2.60;;;;;;;9.03;100.00;99465.38;5055376;28;20151;-38
2024/03/30 05:18:11;;;;;;;3.10;2.70;;;;;;;9.11;100.00;99464.09;5054808;28;20033;-38
2024/03/30 05:20:49;;;;;;;3.03;2.72;;;;;;;9.08;100.00;99455.69;5055040;28;20032;-39
2024/03/30 05:23:22;;;;;;;5.10;3.53;;;;;;;9.01;100.00;99461.28;5054472;28;20029;-38
2024/03/30 05:25:49;;;;;;;3.70;2.85;;;;;;;9.07;100.00;99456.75;5054231;28;20017;-39
2024/03/30 05:28:16;;;;;;;3.70;3.40;;;;;;;9.02;100.00;99450.25;5054577;28;20053;-39
2024/03/30 05:30:42;;;;;;;4.15;3.38;;;;;;;9.00;100.00;99447.00;5054892;28;20048;-40
2024/03/30 05:33:10;;;;;;;3.67;3.38;;;;;;;9.01;100.00;99443.22;5054503;28;20478;-40
2024/03/30 05:35:36;;;;;;;3.70;3.40;;;;;;;8.93;100.00;99441.00;5054413;28;20036;-40
2024/03/30 05:38:04;;;;;;;4.20;3.80;;;;;;;8.96;100.00;99439.66;5054921;28;20021;-40
2024/03/30 05:40:34;;;;;;;3.85;3.55;;;;;;;8.99;100.00;99439.97;5054477;28;20025;-40
2024/03/30 05:43:00;;;;;;;4.15;3.50;;;;;;;8.99;100.00;99431.09;5054580;28;20155;-39
2024/03/30 05:45:26;;;;;;;4.07;3.70;;;;;;;8.93;100.00;99424.81;5054544;28;20033;-39
2024/03/30 05:47:52;;;;;;;3.63;3.33;;;;;;;8.99;100.00;99433.78;5053281;28;20108;-39
2024/03/30 05:50:18;;;;;;;3.75;3.45;;;;;;;9.03;100.00;99433.00;5054215;28;20068;-39
2024/03/30 05:52:44;;;;;;;4.20;3.80;;;;;;;8.95;100.00;99413.78;5054463;28;20036;-39
2024/03/30 05:55:09;;;;;;;4.23;3.83;;;;;;;9.01;100.00;99421.66;5054099;28;20393;-39
2024/03/30 05:57:34;;;;;;;4.23;3.77;;;;;;;9.08;100.00;99421.47;5053763;28;20040;-39
2024/03/30 06:00:00;;;;;;;4.60;4.00;;;;;;;9.06;100.00;99420.06;5053768;28;20033;-39
2024/03/30 06:02:25;;;;;;;4.53;3.73;;;;;;;9.05;100.00;99426.53;5053932;28;20041;-40
2024/03/30 06:04:51;;;;;;;4.27;3.60;;;;;;;9.11;100.00;99433.59;5054031;28;20060;-39
2024/03/30 06:07:16;;;;;;;4.35;3.78;;;;;;;9.07;100.00;99425.22;5053867;28;20487;-39
2024/03/30 06:09:42;;;;;;;4.93;4.10;;;;;;;9.08;100.00;99420.63;5054389;28;20480;-39
2024/03/30 06:12:07;;;;;;;3.73;3.37;;;;;;;9.06;100.00;99412.00;5053808;28;20321;-38
2024/03/30 06:14:33;;;;;;;3.90;3.60;;;;;;;9.11;100.00;99425.53;5053335;28;20029;-39
2024/03/30 06:16:59;;;;;;;3.65;3.35;;;;;;;9.11;100.00;99426.31;5054224;28;20076;-39
2024/03/30 06:19:24;;;;;;;4.05;3.65;;;;;;;9.05;100.00;99410.38;5054243;28;20461;-39
2024/03/30 06:21:50;;;;;;;3.80;3.35;;;;;;;9.18;100.00;99431.53;5053679;28;20461;-39
2024/03/30 06:24:15;;;;;;;3.70;3.37;;;;;;;9.17;100.00;99441.47;5053348;28;20044;-40
2024/03/30 06:26:40;;;;;;;3.70;3.33;;;;;;;9.19;100.00;99441.25;5053584;28;20263;-39
2024/03/30 06:29:06;;;;;;;3.57;3.27;;;;;;;9.20;100.00;99445.56;5053598;28;20025;-39
2024/03/30 06:31:31;;;;;;;4.43;3.67;;;;;;;9.16;100.00;99444.44;5053211;28;20104;-38
2024/03/30 06:33:56;;;;;;;5.43;4.13;;;;;;;9.17;100.00;99443.38;5054219;28;20120;-39
2024/03/30 06:36:22;;;;;;;4.20;3.80;;;;;;;9.15;100.00;99429.34;5053815;28;20461;-39
2024/03/30 06:38:47;;;;;;;3.90;3.50;;;;;;;9.19;100.00;99444.75;5054050;28;20037;-39
2024/03/30 06:43:56;;;;;;;3.60;3.30;;;;;;;9.22;100.00;99433.47;5053869;28;20120;-39
2024/03/30 06:46:22;;;;;;;3.70;3.40;;;;;;;9.25;100.00;99430.22;5053133;28;20111;-39
2024/03/30 06:48:47;;;;;;;4.17;3.50;;;;;;;9.34;100.00;99437.88;5053377;28;20252;-39
2024/03/30 06:51:12;;;;;;;5.93;4.00;;;;;;;9.31;100.00;99417.59;5053591;28;20031;-39
2024/03/30 06:53:38;;;;;;;4.20;3.80;;;;;;;9.31;100.00;99433.78;5053900;28;20300;-39
2024/03/30 06:56:03;;;;;;;5.00;3.60;;;;;;;9.32;100.00;99423.81;5053481;28;20032;-40
2024/03/30 06:58:29;;;;;;;4.20;3.80;;;;;;;9.31;100.00;99424.88;5053679;28;20731;-40
2024/03/30 07:00:54;;;;;;;5.67;4.03;;;;;;;9.35;100.00;99429.50;5053239;28;20468;-38
2024/03/30 07:03:19;;;;;;;4.87;4.00;;;;;;;9.38;100.00;99423.59;5053053;28;20422;-40
2024/03/30 07:05:45;;;;;;;4.03;3.63;;;;;;;9.40;100.00;99420.66;5053203;28;20076;-39
2024/03/30 07:08:10;;;;;;;3.77;3.47;;;;;;;9.48;100.00;99418.28;5053092;28;20025;-40
2024/03/30 07:10:35;;;;;;;4.28;3.92;;;;;;;9.48;100.00;99426.38;5053709;28;20027;-39
2024/03/30 07:13:01;;;;;;;4.38;3.97;;;;;;;9.35;100.00;99416.03;5053057;28;20029;-38
2024/03/30 07:15:28;;;;;;;5.53;4.10;;;;;;;9.43;100.00;99423.66;5054456;28;20024;-39
2024/03/30 07:17:53;;;;;;;4.43;4.03;;;;;;;9.49;100.00;99419.09;5057121;28;20453;-39
2024/03/30 07:20:19;;;;;;;4.82;4.43;;;;;;;9.51;100.00;99425.03;5056783;28;20029;-39
2024/03/30 07:22:44;;;;;;;5.38;4.65;;;;;;;9.52;100.00;99427.50;5057040;28;20032;-39
2024/03/30 07:25:09;;;;;;;5.47;4.47;;;;;;;9.53;100.00;99420.22;5056677;28;20511;-39
2024/03/30 07:27:35;;;;;;;4.80;4.40;;;;;;;9.59;100.00;99419.16;5056970;28;20039;-39
2024/03/30 07:30:02;;;;;;;5.90;5.30;;;;;;;9.52;100.00;99418.59;5057389;28;20346;-39
2024/03/30 07:32:27;;;;;;;6.50;5.38;;;;;;;9.57;100.00;99417.81;5056832;28;20040;-39
2024/03/30 07:34:53;;;;;;;5.90;5.38;;;;;;;9.54;100.00;99409.16;5056728;28;20032;-39
2024/03/30 07:37:18;;;;;;;5.90;5.40;;;;;;;9.59;100.00;99411.06;5056358;28;20055;-39
2024/03/30 07:39:44;;;;;;;6.25;5.68;;;;;;;9.54;100.00;99409.16;5056983;28;20107;-39
2024/03/30 07:42:10;;;;;;;5.95;5.45;;;;;;;9.62;100.00;99407.06;5057391;28;20116;-39
2024/03/30 07:44:37;;;;;;;6.97;6.15;;;;;;;9.63;100.00;99405.97;5056534;28;20447;-39
2024/03/30 07:47:04;;;;;;;6.57;5.97;;;;;;;9.65;100.00;99407.34;5056546;28;20052;-39
2024/03/30 07:49:30;;;;;;;6.75;6.25;;;;;;;9.68;100.00;99403.31;5057010;28;20025;-39
2024/03/30 07:51:56;;;;;;;7.25;6.65;;;;;;;9.69;100.00;99399.53;5057059;28;20377;-39
2024/03/30 07:54:21;;;;;;;7.53;6.37;;;;;;;9.77;100.00;99394.47;5056873;28;20064;-39
2024/03/30 07:56:57;;;;;;;7.18;6.57;;;;;;;9.79;100.00;99394.19;5056324;28;20032;-39
2024/03/30 07:59:23;;;;;;;7.10;6.50;;;;;;;9.85;100.00;99393.16;5056583;28;20029;-39
2024/03/30 08:01:48;;;;;;;;;;;;;;;9.96;100.00;99399.44;5056603;28;20044;-38
2024/03/30 08:04:17;;;;;;;7.53;6.82;;;;;;;9.98;100.00;99390.00;5056758;28;19909;-39
2024/03/30 08:06:44;;;;;;;7.25;6.53;;;;;;;10.09;100.00;99379.22;5056415;28;20362;-39
2024/03/30 08:09:10;;;;;;;7.82;7.13;;;;;;;10.14;100.00;99390.88;5056710;28;20029;-39
2024/03/30 08:11:35;;;;;;;8.02;7.15;;;;;;;10.12;100.00;99366.03;5056120;28;20023;-39
2024/03/30 08:14:01;;;;;;;8.10;7.40;;;;;;;10.19;100.00;99363.06;5055704;28;20477;-39
2024/03/30 08:16:26;;;;;;;7.57;6.88;;;;;;;10.20;100.00;99354.72;5056059;28;20051;-39
2024/03/30 08:18:52;;;;;;;8.90;8.10;;;;;;;10.40;100.00;99362.09;5056786;28;20036;-39
2024/03/30 08:21:18;;;;;;;;;;;;;;;10.53;100.00;99361.59;5056903;28;20357;-39
2024/03/30 08:23:43;;;;;;;8.00;7.30;;;;;;;10.51;100.00;99365.66;5056385;28;19909;-39
2024/03/30 08:26:08;;;;;;;9.27;8.37;;;;;;;10.43;100.00;99364.25;5055171;28;20075;-39
2024/03/30 08:28:34;;;;;;;9.37;8.50;;;;;;;10.44;100.00;99360.50;5056355;28;20025;-39
2024/03/30 08:30:59;;;;;;;8.90;7.70;;;;;;;10.49;100.00;99354.28;5055817;28;20263;-39
2024/03/30 08:33:24;;;;;;;8.87;8.03;;;;;;;10.54;100.00;99355.13;5056209;28;20063;-38
2024/03/30 08:35:54;;;;;;;9.37;8.57;;;;;;;10.58;100.00;99358.06;5056381;28;20104;-39
2024/03/30 08:38:20;;;;;;;9.85;8.95;;;;;;;10.65;100.00;99363.25;5056082;28;20338;-39
2024/03/30 08:40:45;;;;;;;9.27;8.48;;;;;;;10.71;100.00;99346.75;5055839;28;20021;-39
2024/03/30 08:43:11;;;;;;;9.10;8.20;;;;;;;10.74;100.00;99335.41;5056011;28;20052;-39
2024/03/30 08:45:36;;;;;;;9.45;8.65;;;;;;;10.87;100.00;99353.00;5056283;28;20036;-39
2024/03/30 08:48:01;;;;;;;10.03;9.10;;;;;;;10.88;100.00;99341.09;5055674;28;20106;-39
2024/03/30 08:50:27;;;;;;;10.50;9.50;;;;;;;10.96;100.00;99342.47;5055607;28;20076;-39
2024/03/30 08:52:52;;;;;;;9.80;8.90;;;;;;;11.02;100.00;99331.34;5055653;28;20473;-39
2024/03/30 08:55:18;;;;;;;10.37;9.33;;;;;;;11.10;100.00;99346.25;5055307;28;20307;-39
2024/03/30 08:57:43;;;;;;;;;;;;;;;11.24;100.00;99354.63;5055104;28;20035;-39
2024/03/30 09:00:09;;;;;;;8.50;7.80;;;;;;;11.23;100.00;99361.94;5055433;28;20051;-39
2024/03/30 09:02:36;;;;;;;10.35;9.23;;;;;;;11.25;100.00;99351.66;5055097;28;20303;-39
2024/03/30 09:05:02;;;;;;;9.48;8.57;;;;;;;11.22;100.00;99348.66;5055340;28;20424;-39
2024/03/30 09:07:27;;;;;;;8.63;7.85;;;;;;;11.28;100.00;99366.53;5055585;28;20055;-39
2024/03/30 09:09:53;;;;;;;8.83;8.07;;;;;;;11.25;100.00;99362.47;5055081;28;20025;-39
2024/03/30 09:12:18;;;;;;;8.23;7.53;;;;;;;11.29;100.00;99357.34;5054946;28;20025;-38
2024/03/30 09:14:43;;;;;;;8.87;8.07;;;;;;;11.32;100.00;99344.09;5055335;28;20279;-38
2024/03/30 09:17:09;;;;;;;8.68;7.72;;;;;;;11.33;100.00;99329.47;5055091;28;20592;-38
2024/03/30 09:19:34;;;;;;;8.95;8.15;;;;;;;11.33;100.00;99326.75;5055365;28;20119;-39
2024/03/30 09:22:00;;;;;;;8.30;7.40;;;;;;;11.35;100.00;99335.41;5055239;28;20033;-38
2024/03/30 09:24:25;;;;;;;9.18;8.27;;;;;;;11.29;100.00;99328.38;5054675;28;20404;-38
2024/03/30 09:26:51;;;;;;;7.93;7.15;;;;;;;11.38;100.00;99336.75;5055126;28;20106;-38
2024/03/30 09:29:16;;;;;;;8.70;7.80;;;;;;;11.33;100.00;99331.38;5055169;28;20369;-38
2024/03/30 09:31:41;;;;;;;8.63;7.93;;;;;;;11.39;100.00;99327.56;5054278;28;20321;-38
2024/03/30 09:34:07;;;;;;;9.40;8.43;;;;;;;11.37;100.00;99331.59;5055272;28;20108;-38
2024/03/30 09:36:32;;;;;;;8.80;7.90;;;;;;;11.37;100.00;99318.91;5054294;28;20020;-39
2024/03/30 09:38:58;;;;;;;8.18;7.35;;;;;;;11.34;100.00;99319.44;5053345;28;20271;-39
2024/03/30 09:41:26;;;;;;;9.20;8.23;;;;;;;11.38;100.00;99323.25;5054369;28;20036;-39
2024/03/30 09:43:53;;;;;;;8.35;7.63;;;;;;;11.39;100.00;99322.16;5054946;28;20037;-38
2024/03/30 09:46:18;;;;;;;9.45;8.10;;;;;;;11.40;100.00;99323.75;5054516;28;20040;-38
2024/03/30 09:48:46;;;;;;;7.88;7.18;;;;;;;11.41;100.00;99333.50;5054786;28;20389;-38
2024/03/30 09:51:15;;;;;;;8.32;7.55;;;;;;;11.45;100.00;99334.56;5054140;28;20448;-40
2024/03/30 09:53:41;;;;;;;8.18;7.05;;;;;;;11.55;100.00;99345.38;5053760;28;20049;-38
2024/03/30 09:56:08;;;;;;;8.93;8.02;;;;;;;11.64;100.00;99353.78;5054346;28;20060;-39
2024/03/30 09:58:34;;;;;;;8.77;7.88;;;;;;;11.60;100.00;99341.84;5054022;28;20469;-39
2024/03/30 10:01:00;;;;;;;8.02;7.32;;;;;;;11.70;100.00;99335.59;5054300;28;20025;-39
2024/03/30 10:03:26;;;;;;;8.10;7.30;;;;;;;11.72;100.00;99345.09;5053944;28;20477;-39
2024/03/30 10:05:53;;;;;;;8.93;7.97;;;;;;;11.71;100.00;99342.63;5054151;28;20032;-40
2024/03/30 10:08:24;;;;;;;8.77;7.82;;;;;;;11.65;100.00;99344.56;5053521;28;20114;-39
2024/03/30 10:10:57;;;;;;;9.23;8.13;;;;;;;11.53;100.00;99336.75;5054069;28;20473;-40
2024/03/30 10:13:30;;;;;;;14.30;8.55;;;;;;;11.64;100.00;99350.25;5054409;28;20113;-39
2024/03/30 10:15:56;;;;;;;9.82;8.10;;;;;;;11.59;100.00;99335.63;5054068;28;20381;-39
2024/03/30 10:18:22;;;;;;;11.30;8.15;;;;;;;11.66;100.00;99348.88;5053684;28;20029;-39
2024/03/30 10:20:48;;;;;;;9.93;8.95;;;;;;;11.71;100.00;99343.47;5053787;28;20028;-40
2024/03/30 10:23:14;;;;;;;9.40;8.60;;;;;;;11.77;100.00;99338.84;5053462;28;20033;-39
2024/03/30 10:25:53;;;;;;;10.38;9.18;;;;;;;11.88;100.00;99337.75;5054195;28;20025;-39
2024/03/30 10:28:20;;;;;;;10.07;9.07;;;;;;;11.95;100.00;99335.56;5053607;28;20032;-38
2024/03/30 10:30:46;;;;;;;13.77;9.38;;;;;;;12.05;100.00;99319.28;5054111;28;20029;-38
2024/03/30 10:33:14;;;;;;;;;;;;;;;12.29;100.00;99319.41;5053910;28;20032;-39
2024/03/30 10:35:42;;;;;;;12.93;9.43;;;;;;;12.26;100.00;99322.69;5053721;28;20284;-39
2024/03/30 10:38:08;;;;;;;11.27;8.80;;;;;;;12.31;100.00;99314.53;5054220;28;20033;-39
2024/03/30 10:40:36;;;;;;;;;;;;;;;12.59;100.00;99339.31;5054124;28;20369;-39
2024/03/30 10:43:01;;;;;;;11.45;8.25;;;;;;;12.60;100.00;99338.25;5053094;28;19908;-39
2024/03/30 10:45:27;;;;;;;;;;;;;;;12.79;100.00;99346.53;5054146;28;20044;-39
2024/03/30 10:47:56;;;;;;;12.85;8.18;;;;;;;12.69;100.00;99327.59;5053868;28;19909;-39
2024/03/30 10:50:24;;;;;;;8.40;7.50;;;;;;;12.82;100.00;99343.22;5053914;28;20033;-39
2024/03/30 10:52:49;;;;;;;9.40;8.20;;;;;;;12.88;100.00;99334.78;5053516;28;20055;-39
2024/03/30 10:55:15;;;;;;;;;;;;;;;13.09;100.00;99338.16;5054460;28;20057;-38
2024/03/30 10:57:40;;;;;;;13.68;7.57;;;;;;;13.09;100.00;99343.56;5052877;28;19948;-38
2024/03/30 11:00:10;;;;;;;;;;;;;;;13.23;100.00;99346.47;5054225;28;20114;-40
2024/03/30 11:02:37;;;;;;;10.43;6.50;;;;;;;13.20;100.00;99357.06;5053618;28;20004;-39
2024/03/30 11:05:04;;;;;;;8.88;6.57;;;;;;;13.25;100.00;99365.19;5052898;28;20496;-39
2024/03/30 11:07:30;;;;;;;9.13;5.75;;;;;;;13.28;100.00;99368.16;5053107;28;20040;-40
2024/03/30 11:09:57;;;;;;;;;;;;;;;13.45;100.00;99364.19;5054086;28;20025;-39
2024/03/30 11:12:22;;;;;;;16.00;6.75;;;;;;;13.43;100.00;99363.69;5053106;28;19912;-40
2024/03/30 11:14:48;;;;;;;14.85;7.35;;;;;;;13.47;100.00;99376.41;5053039;28;20441;-40
2024/03/30 11:17:21;;;;;;;15.77;6.55;;;;;;;13.47;100.00;99390.00;5053050;28;20043;-39
2024/03/30 11:19:52;;;;;;;16.90;6.22;;;;;;;13.57;100.00;99397.22;5053371;28;20079;-40
2024/03/30 11:23:08;;;;;;;13.93;5.93;;;;;;;13.78;100.00;99406.00;5053038;28;20519;-39
2024/03/30 11:25:39;;;;;;;14.45;5.70;;;;;;;13.93;100.00;99397.69;5053035;28;20107;-40
2024/03/30 11:28:11;;;;;;;13.95;4.68;;;;;;;13.99;100.00;99385.66;5052985;28;20017;-39
2024/03/30 11:30:36;;;;;;;15.27;5.35;;;;;;;14.13;100.00;99402.06;5053289;28;20025;-40